Airfield :
LOGIN :

Register | Disclaimer

   EN    FR    IT 

 










Legend :    VFR   Marginal VFR   IFR   Intensive IFR   Very Intensive IFR
Visi :
Ceiling :
>= 8 km
>= 3000ft
5 to 8 km
1000 to 3000 ft
1500m to 5 km
500 to 1000 ft
800 to 1500m
200 to 500 ft
< 800m
< 200 ft
Symbols :   Thunderstorms  Fog  Heavy snow  Heavy precipitations  Wind > 20 kt
SIGMETs :     Misc.  Thunderstorms  Icing  Turbulence  Mountain Waves  Volcanic Ashes






- Airport Elevation : 276 ft


LYVR - Vršac International

CURRENT METAR :
  • 180600Z 03004KT CAVOK 16/11 Q1019

EXPIRED METARs :
  • 180530Z 03003KT 350V060 CAVOK 15/11 Q1019
  • 180500Z 02005KT CAVOK 15/10 Q1018
  • 180430Z 01005KT CAVOK 15/11 Q1018
  • 180400Z AUTO 02005KT 9999 -SHRA NSC 15/12 Q1018
  • 180330Z AUTO 02006KT CAVOK 15/12 Q1017

TAF TAF LYVR
Valid from the 18 at 06:00 until the 19 at 06:00 UTC


180500Z 1806/1906 36010KT CAVOK TX26/1814Z TN08/1904Z
TEMPO 1808/1816 35015G25KT
BECMG 1817/1819 30005KT



MET'MAP, your aeronautical weather chart ! - Copyright ORBIFLY December 2007 - Disclaimer

ORBIFLY MET'MAP TEAM :

Programming & Development : Alexandra Zaïnal
Concept & original design : Baudouin d'Aumeries
Assistance for programming : Marc-Olivier Méhu
Technical & hardware support : Manuel Goepfert

Contact : metmap@orbifly.com




SOURCES & CREDITS :

   NOAA